createdAt,value
2019-03-27T00:00:19.056Z,5.6
2019-03-27T00:01:18.452Z,5.6
2019-03-27T00:02:17.358Z,5.6
2019-03-27T00:03:16.271Z,5.6
2019-03-27T00:04:15.484Z,5.6
2019-03-27T00:05:14.157Z,5.6
2019-03-27T00:06:13.576Z,5.6
2019-03-27T00:07:12.202Z,5.6
2019-03-27T00:07:42.820Z,5.6
2019-03-27T00:09:10.840Z,5.7
2019-03-27T00:10:09.766Z,5.7
2019-03-27T00:11:08.571Z,5.7
2019-03-27T00:12:07.594Z,5.7
2019-03-27T00:13:06.908Z,5.7
2019-03-27T00:14:05.819Z,5.7
2019-03-27T00:15:14.787Z,5.7
2019-03-27T00:16:04.146Z,5.7
2019-03-27T00:17:03.064Z,5.7
2019-03-27T00:17:33.291Z,5.7
2019-03-27T00:18:03.426Z,5.7
2019-03-27T00:18:33.958Z,5.7
2019-03-27T00:20:00.634Z,5.7
2019-03-27T00:20:59.451Z,5.7
2019-03-27T00:21:58.468Z,5.7
2019-03-27T00:22:57.396Z,5.7
2019-03-27T00:23:56.708Z,5.7
2019-03-27T00:24:55.365Z,5.6
2019-03-27T00:25:54.579Z,5.6
2019-03-27T00:26:53.701Z,5.6
2019-03-27T00:27:24.451Z,5.6
2019-03-27T00:27:54.975Z,5.6
2019-03-27T00:28:25.602Z,5.6
2019-03-27T00:28:56.302Z,5.6
2019-03-27T00:29:26.534Z,5.6
2019-03-27T00:30:50.093Z,5.6
2019-03-27T00:31:48.998Z,5.6
2019-03-27T00:32:48.230Z,5.6
2019-03-27T00:33:46.948Z,5.6
2019-03-27T00:34:46.255Z,5.6
2019-03-27T00:35:45.064Z,5.6
2019-03-27T00:36:44.405Z,5.6
2019-03-27T00:37:14.524Z,5.6
2019-03-27T00:37:45.153Z,5.6
2019-03-27T00:38:15.805Z,5.6
2019-03-27T00:38:46.525Z,5.6
2019-03-27T00:39:16.466Z,5.6
2019-03-27T00:39:47.004Z,5.6
2019-03-27T00:40:17.720Z,5.6
2019-03-27T00:41:39.575Z,5.6
2019-03-27T00:42:38.892Z,5.6
2019-03-27T00:43:37.493Z,5.6
2019-03-27T00:44:36.801Z,5.6
2019-03-27T00:45:36.215Z,5.6
2019-03-27T00:46:35.025Z,5.6
2019-03-27T00:47:33.830Z,5.6
2019-03-27T00:48:04.526Z,5.6
2019-03-27T00:48:34.660Z,5.6
2019-03-27T00:49:05.195Z,5.6
2019-03-27T00:49:35.529Z,5.6
2019-03-27T00:50:06.160Z,5.6
2019-03-27T00:51:30.227Z,5.6
2019-03-27T00:52:29.588Z,5.6
2019-03-27T00:53:28.304Z,5.6
2019-03-27T00:54:27.507Z,5.6
2019-03-27T00:55:26.324Z,5.6
2019-03-27T00:56:25.437Z,5.6
2019-03-27T00:57:24.860Z,5.7
2019-03-27T00:57:55.080Z,5.7
2019-03-27T00:58:25.206Z,5.7
2019-03-27T00:58:55.926Z,5.7
2019-03-27T00:59:26.064Z,5.7
2019-03-27T00:59:56.782Z,5.7
2019-03-27T01:00:26.925Z,5.7
2019-03-27T01:00:57.652Z,5.7
2019-03-27T01:02:19.830Z,5.6
2019-03-27T01:03:19.233Z,5.6
2019-03-27T01:04:18.238Z,5.6
2019-03-27T01:05:17.157Z,5.6
2019-03-27T01:06:16.475Z,5.6
2019-03-27T01:07:15.276Z,5.6
2019-03-27T01:07:45.996Z,5.6
2019-03-27T01:08:16.035Z,5.6
2019-03-27T01:08:46.770Z,5.6
2019-03-27T01:09:17.197Z,5.6
2019-03-27T01:09:47.734Z,5.6
2019-03-27T01:10:18.169Z,5.6
2019-03-27T01:10:48.716Z,5.6
2019-03-27T01:11:19.350Z,5.6
2019-03-27T01:11:50.077Z,5.6
2019-03-27T01:13:09.423Z,5.6
2019-03-27T01:14:08.765Z,5.6
2019-03-27T01:15:07.683Z,5.6
2019-03-27T01:16:06.501Z,5.6
2019-03-27T01:17:05.621Z,5.6
2019-03-27T01:17:36.348Z,5.6
2019-03-27T01:18:06.475Z,5.6
2019-03-27T01:18:36.999Z,5.6
2019-03-27T01:19:07.621Z,5.5
2019-03-27T01:19:38.053Z,5.5
2019-03-27T01:20:08.483Z,5.6
2019-03-27T01:20:39.280Z,5.6
2019-03-27T01:21:09.415Z,5.5
2019-03-27T01:21:39.946Z,5.5
2019-03-27T01:23:00.292Z,5.6
2019-03-27T01:23:59.011Z,5.6
2019-03-27T01:24:58.229Z,5.6
2019-03-27T01:25:57.543Z,5.6
2019-03-27T01:26:56.368Z,5.6
2019-03-27T01:27:55.727Z,5.6
2019-03-27T01:28:26.358Z,5.6
2019-03-27T01:28:56.988Z,5.6
2019-03-27T01:29:27.618Z,5.6
2019-03-27T01:29:58.243Z,5.6
2019-03-27T01:30:28.969Z,5.6
2019-03-27T01:30:59.099Z,5.6
2019-03-27T01:31:29.621Z,5.6
2019-03-27T01:32:50.483Z,5.6
2019-03-27T01:33:49.800Z,5.6
2019-03-27T01:34:49.128Z,5.6
2019-03-27T01:35:47.941Z,5.6
2019-03-27T01:36:46.751Z,5.6
2019-03-27T01:37:46.073Z,5.6
2019-03-27T01:38:44.955Z,5.6
2019-03-27T01:39:14.995Z,5.6
2019-03-27T01:40:43.088Z,5.6
2019-03-27T01:41:13.219Z,5.6
2019-03-27T01:41:43.927Z,5.5
2019-03-27T01:42:41.230Z,5.5
2019-03-27T01:43:40.630Z,5.5
2019-03-27T01:45:38.331Z,5.5
2019-03-27T01:46:37.740Z,5.5
2019-03-27T01:48:35.842Z,5.5
2019-03-27T01:50:34.135Z,5.6
2019-03-27T01:51:04.385Z,5.6
2019-03-27T01:51:34.419Z,5.5
2019-03-27T01:53:31.011Z,5.5
2019-03-27T01:54:30.324Z,5.5
2019-03-27T01:55:29.212Z,5.5
2019-03-27T01:56:27.926Z,5.6
2019-03-27T01:57:27.141Z,5.6
2019-03-27T01:58:26.482Z,5.6
2019-03-27T01:59:25.104Z,5.5
2019-03-27T01:59:55.627Z,5.5
2019-03-27T02:00:26.172Z,5.5
2019-03-27T02:00:56.914Z,5.5
2019-03-27T02:02:22.206Z,5.5
2019-03-27T02:03:21.606Z,5.5
2019-03-27T02:04:20.413Z,5.5
2019-03-27T02:05:19.538Z,5.5
2019-03-27T02:06:18.848Z,5.5
2019-03-27T02:07:17.754Z,5.5
2019-03-27T02:08:17.132Z,5.5
2019-03-27T02:09:15.944Z,5.5
2019-03-27T02:10:14.756Z,5.5
2019-03-27T02:10:45.380Z,5.5
2019-03-27T02:11:16.108Z,5.5
2019-03-27T02:11:46.338Z,5.5
2019-03-27T02:12:16.358Z,5.5
2019-03-27T02:13:12.153Z,5.5
2019-03-27T02:14:11.368Z,5.5
2019-03-27T02:15:10.173Z,5.5
2019-03-27T02:16:09.086Z,5.5
2019-03-27T02:17:08.314Z,5.5
2019-03-27T02:19:41.402Z,5.5
2019-03-27T02:19:43.403Z,5.5
2019-03-27T02:20:13.913Z,5.5
2019-03-27T02:21:04.741Z,5.5
2019-03-27T02:22:03.621Z,5.5
2019-03-27T02:23:03.031Z,5.5
2019-03-27T02:24:01.910Z,5.5
2019-03-27T02:25:01.032Z,5.5
2019-03-27T02:25:59.703Z,5.5
2019-03-27T02:26:30.300Z,5.5
2019-03-27T02:27:01.042Z,5.5
2019-03-27T02:27:57.804Z,5.5
2019-03-27T02:28:56.880Z,5.5
2019-03-27T02:29:56.061Z,5.5
2019-03-27T02:30:55.355Z,5.5
2019-03-27T02:31:54.374Z,5.5
2019-03-27T02:32:53.274Z,5.4
2019-03-27T02:33:52.065Z,5.4
2019-03-27T02:34:51.481Z,5.4
2019-03-27T02:35:50.367Z,5.4
2019-03-27T02:36:20.691Z,5.4
2019-03-27T02:36:50.903Z,5.4
2019-03-27T02:37:21.119Z,5.4
2019-03-27T02:37:51.732Z,5.4
2019-03-27T02:38:47.692Z,5.4
2019-03-27T02:39:46.405Z,5.4
2019-03-27T02:40:45.710Z,5.5
2019-03-27T02:41:44.897Z,5.5
2019-03-27T02:42:43.784Z,5.5
2019-03-27T02:43:43.158Z,5.5
2019-03-27T02:44:42.046Z,5.4
2019-03-27T02:46:40.234Z,5.5
2019-03-27T02:47:10.871Z,5.5
2019-03-27T02:48:38.524Z,5.5
2019-03-27T02:49:37.434Z,5.5
2019-03-27T02:50:36.328Z,5.5
2019-03-27T02:51:35.744Z,5.4
2019-03-27T02:52:34.546Z,5.4
2019-03-27T02:53:33.428Z,5.4
2019-03-27T02:54:32.819Z,5.4
2019-03-27T02:55:31.728Z,5.4
2019-03-27T02:56:02.336Z,5.4
2019-03-27T02:56:32.572Z,5.5
2019-03-27T02:57:03.290Z,5.5
2019-03-27T02:57:33.488Z,5.5
2019-03-27T02:58:03.657Z,5.5
2019-03-27T02:59:27.717Z,5.4
2019-03-27T03:00:27.125Z,5.4
2019-03-27T03:01:26.023Z,5.4
2019-03-27T03:02:24.938Z,5.4
2019-03-27T03:03:24.346Z,5.4
2019-03-27T03:04:23.157Z,5.4
2019-03-27T03:05:21.946Z,5.4
2019-03-27T03:05:52.577Z,5.4
2019-03-27T03:06:23.280Z,5.4
2019-03-27T03:06:53.527Z,5.4
2019-03-27T03:07:23.618Z,5.4
2019-03-27T03:07:54.237Z,5.4
2019-03-27T03:09:18.301Z,5.4
2019-03-27T03:10:17.743Z,5.4
2019-03-27T03:11:16.689Z,5.4
2019-03-27T03:12:15.574Z,5.4
2019-03-27T03:13:14.410Z,5.4
2019-03-27T03:14:13.715Z,5.4
2019-03-27T03:15:12.664Z,5.4
2019-03-27T03:15:42.799Z,5.4
2019-03-27T03:16:13.652Z,5.4
2019-03-27T03:16:44.728Z,5.4
2019-03-27T03:17:14.522Z,5.4
2019-03-27T03:17:44.565Z,5.4
2019-03-27T03:20:08.038Z,5.4
2019-03-27T03:21:06.947Z,5.4
2019-03-27T03:23:05.295Z,5.4
2019-03-27T03:24:04.199Z,5.4
2019-03-27T03:25:03.119Z,5.4
2019-03-27T03:25:33.307Z,5.4
2019-03-27T03:26:03.984Z,5.4
2019-03-27T03:26:34.504Z,5.4
2019-03-27T03:27:05.235Z,5.4
2019-03-27T03:27:35.851Z,5.4
2019-03-27T03:28:05.990Z,5.4
2019-03-27T03:28:36.615Z,5.4
2019-03-27T03:29:07.316Z,5.4
2019-03-27T03:29:37.906Z,5.4
2019-03-27T03:30:57.875Z,5.4
2019-03-27T03:31:56.725Z,5.4
2019-03-27T03:32:55.718Z,5.4
2019-03-27T03:33:54.850Z,5.4
2019-03-27T03:34:53.725Z,5.4
2019-03-27T03:35:23.933Z,5.4
2019-03-27T03:35:54.203Z,5.4
2019-03-27T03:36:24.552Z,5.4
2019-03-27T03:36:54.670Z,5.4
2019-03-27T03:37:25.409Z,5.4
2019-03-27T03:37:56.166Z,5.4
2019-03-27T03:38:26.274Z,5.4
2019-03-27T03:38:57.008Z,5.4
2019-03-27T03:39:27.147Z,5.4
2019-03-27T03:40:48.197Z,5.4
2019-03-27T03:41:46.989Z,5.4
2019-03-27T03:42:46.392Z,5.4
2019-03-27T03:43:45.091Z,5.4
2019-03-27T03:44:44.502Z,5.4
2019-03-27T03:45:43.194Z,5.4
2019-03-27T03:46:13.945Z,5.4
2019-03-27T03:47:01.651Z,5.4
2019-03-27T03:47:14.644Z,5.4
2019-03-27T03:47:45.359Z,5.4
2019-03-27T03:48:15.392Z,5.4
2019-03-27T03:48:46.109Z,5.4
2019-03-27T03:49:16.230Z,5.4
2019-03-27T03:50:38.681Z,5.4
2019-03-27T03:52:36.957Z,5.4
2019-03-27T03:53:35.824Z,5.4
2019-03-27T03:54:35.218Z,5.4
2019-03-27T03:55:34.001Z,5.4
2019-03-27T03:56:32.898Z,5.4
2019-03-27T03:57:03.185Z,5.4
2019-03-27T03:57:33.530Z,5.4
2019-03-27T03:58:03.770Z,5.4
2019-03-27T03:58:33.922Z,5.4
2019-03-27T03:59:04.535Z,5.4
2019-03-27T04:00:29.082Z,5.4
2019-03-27T04:01:28.472Z,5.4
2019-03-27T04:02:27.368Z,5.4
2019-03-27T04:03:26.245Z,5.4
2019-03-27T04:04:25.448Z,5.4
2019-03-27T04:05:24.236Z,5.4
2019-03-27T04:06:23.626Z,5.4
2019-03-27T04:07:22.426Z,5.4
2019-03-27T04:07:53.160Z,5.4
2019-03-27T04:08:23.502Z,5.4
2019-03-27T04:08:53.890Z,5.4
2019-03-27T04:10:19.943Z,5.4
2019-03-27T04:11:18.834Z,5.3
2019-03-27T04:12:17.887Z,5.3
2019-03-27T04:13:16.973Z,5.4
2019-03-27T04:14:15.845Z,5.4
2019-03-27T04:15:15.178Z,5.4
2019-03-27T04:16:14.102Z,5.4
2019-03-27T04:17:19.186Z,5.3
2019-03-27T04:17:43.339Z,5.3
2019-03-27T04:18:13.547Z,5.4
2019-03-27T04:18:43.749Z,5.4
2019-03-27T04:20:10.340Z,5.3
2019-03-27T04:21:09.137Z,5.3
2019-03-27T04:22:08.522Z,5.3
2019-03-27T04:23:07.436Z,5.3
2019-03-27T04:24:06.727Z,5.3
2019-03-27T04:25:05.636Z,5.3
2019-03-27T04:26:12.087Z,5.3
2019-03-27T04:27:03.845Z,5.3
2019-03-27T04:28:02.763Z,5.3
2019-03-27T04:28:32.983Z,5.3
2019-03-27T04:30:01.177Z,5.3
2019-03-27T04:31:00.059Z,5.3
2019-03-27T04:31:58.865Z,5.3
2019-03-27T04:32:58.251Z,5.3
2019-03-27T04:33:57.180Z,5.3
2019-03-27T04:34:56.091Z,5.3
2019-03-27T04:35:55.393Z,5.3
2019-03-27T04:36:54.188Z,5.3
2019-03-27T04:37:53.491Z,5.3
2019-03-27T04:38:52.278Z,5.3
2019-03-27T04:39:22.476Z,5.3
2019-03-27T04:39:52.613Z,5.3
2019-03-27T04:40:50.575Z,5.3
2019-03-27T04:41:49.462Z,5.3
2019-03-27T04:42:48.842Z,5.3
2019-03-27T04:43:47.529Z,5.3
2019-03-27T04:44:18.228Z,5.3
2019-03-27T04:44:48.430Z,5.3
2019-03-27T04:45:45.746Z,5.3
2019-03-27T04:46:44.545Z,5.3
2019-03-27T04:47:43.948Z,5.3
2019-03-27T04:48:42.853Z,5.3
2019-03-27T04:49:42.231Z,5.3
2019-03-27T04:50:41.100Z,5.3
2019-03-27T04:51:39.882Z,5.3
2019-03-27T04:52:39.290Z,5.3
2019-03-27T04:53:37.972Z,5.3
2019-03-27T04:54:08.462Z,5.3
2019-03-27T04:54:39.059Z,5.3
2019-03-27T04:55:09.666Z,5.3
2019-03-27T04:55:40.352Z,5.3
2019-03-27T04:56:10.944Z,5.3
2019-03-27T04:56:41.435Z,5.3
2019-03-27T04:57:34.182Z,5.3
2019-03-27T04:58:33.469Z,5.3
2019-03-27T04:59:32.343Z,5.3
2019-03-27T05:00:31.707Z,5.3
2019-03-27T05:01:30.521Z,5.3
2019-03-27T05:02:29.911Z,5.3
2019-03-27T05:03:28.689Z,5.3
2019-03-27T05:03:59.405Z,5.3
2019-03-27T05:04:29.509Z,5.3
2019-03-27T05:05:00.372Z,5.3
2019-03-27T05:06:25.868Z,5.3
2019-03-27T05:07:25.174Z,5.3
2019-03-27T05:08:24.043Z,5.3
2019-03-27T05:09:22.914Z,5.3
2019-03-27T05:10:22.188Z,5.3
2019-03-27T05:11:21.068Z,5.3
2019-03-27T05:12:20.257Z,5.3
2019-03-27T05:14:18.405Z,5.3
2019-03-27T05:14:49.096Z,5.3
2019-03-27T05:15:19.859Z,5.3
2019-03-27T05:15:50.049Z,5.3
2019-03-27T05:17:15.609Z,5.3
2019-03-27T05:18:14.392Z,5.3
2019-03-27T05:19:13.843Z,5.3
2019-03-27T05:20:12.626Z,5.3
2019-03-27T05:21:11.510Z,5.3
2019-03-27T05:22:10.891Z,5.3
2019-03-27T05:23:09.674Z,5.3
2019-03-27T05:23:40.368Z,5.3
2019-03-27T05:24:11.063Z,5.3
2019-03-27T05:24:41.652Z,5.3
2019-03-27T05:25:12.261Z,5.3
2019-03-27T05:25:42.850Z,5.3
2019-03-27T05:26:13.561Z,5.3
2019-03-27T05:26:43.749Z,5.3
2019-03-27T05:28:05.236Z,5.3
2019-03-27T05:29:04.110Z,5.4
2019-03-27T05:30:02.996Z,5.4
2019-03-27T05:31:02.380Z,5.4
2019-03-27T05:32:01.255Z,5.4
2019-03-27T05:33:00.457Z,5.4
2019-03-27T05:33:33.917Z,5.4
2019-03-27T05:34:01.586Z,5.4
2019-03-27T05:34:32.279Z,5.4
2019-03-27T05:35:02.913Z,5.4
2019-03-27T05:35:33.611Z,5.4
2019-03-27T05:36:04.216Z,5.4
2019-03-27T05:36:34.817Z,5.4
2019-03-27T05:37:05.328Z,5.4
2019-03-27T05:37:36.013Z,5.4
2019-03-27T05:38:54.428Z,5.4
2019-03-27T05:39:53.607Z,5.4
2019-03-27T05:40:52.804Z,5.4
2019-03-27T05:41:51.678Z,5.4
2019-03-27T05:43:02.431Z,5.4
2019-03-27T05:43:21.561Z,5.4
2019-03-27T05:43:52.250Z,5.4
2019-03-27T05:44:22.935Z,5.4
2019-03-27T05:44:53.534Z,5.4
2019-03-27T05:45:24.131Z,5.4
2019-03-27T05:45:54.821Z,5.4
2019-03-27T05:46:27.831Z,5.4
2019-03-27T05:46:55.909Z,5.4
2019-03-27T05:47:26.507Z,5.4
2019-03-27T05:48:01.245Z,5.4
2019-03-27T05:48:27.311Z,5.4
2019-03-27T05:49:44.210Z,5.4
2019-03-27T05:50:43.067Z,5.4
2019-03-27T05:51:42.350Z,5.4
2019-03-27T05:52:41.149Z,5.4
2019-03-27T05:53:40.439Z,5.5
2019-03-27T05:54:11.027Z,5.5
2019-03-27T05:54:41.612Z,5.5
2019-03-27T05:55:12.316Z,5.5
2019-03-27T05:55:42.522Z,5.5
2019-03-27T05:56:12.747Z,5.5
2019-03-27T05:56:42.934Z,5.5
2019-03-27T05:57:13.621Z,5.5
2019-03-27T05:57:44.306Z,5.5
2019-03-27T05:58:14.997Z,5.5
2019-03-27T05:59:34.936Z,5.4
2019-03-27T06:00:34.627Z,5.5
2019-03-27T06:01:32.902Z,5.4
2019-03-27T06:02:31.793Z,5.5
2019-03-27T06:03:31.174Z,5.4
2019-03-27T06:04:29.960Z,5.5
2019-03-27T06:05:00.845Z,5.5
2019-03-27T06:05:31.028Z,5.5
2019-03-27T06:06:01.746Z,5.5
2019-03-27T06:06:31.843Z,5.5
2019-03-27T06:07:02.589Z,5.5
2019-03-27T06:07:33.183Z,5.5
2019-03-27T06:08:03.881Z,5.5
2019-03-27T06:08:34.563Z,5.4
2019-03-27T06:09:05.145Z,5.4
2019-03-27T06:10:24.560Z,5.5
2019-03-27T06:11:23.467Z,5.5
2019-03-27T06:12:22.334Z,5.5
2019-03-27T06:13:21.515Z,5.5
2019-03-27T06:14:20.185Z,5.5
2019-03-27T06:14:50.879Z,5.5
2019-03-27T06:15:21.561Z,5.5
2019-03-27T06:15:52.262Z,5.5
2019-03-27T06:16:22.855Z,5.5
2019-03-27T06:16:53.462Z,5.5
2019-03-27T06:17:24.188Z,5.5
2019-03-27T06:17:54.391Z,5.5
2019-03-27T06:19:15.809Z,5.5
2019-03-27T06:20:15.088Z,5.5
2019-03-27T06:21:13.963Z,5.5
2019-03-27T06:22:16.327Z,5.5
2019-03-27T06:23:12.191Z,5.5
2019-03-27T06:24:10.961Z,5.5
2019-03-27T06:25:10.252Z,5.5
2019-03-27T06:25:40.982Z,5.5
2019-03-27T06:26:11.087Z,5.5
2019-03-27T06:26:41.667Z,5.5
2019-03-27T06:27:12.369Z,5.5
2019-03-27T06:27:42.558Z,5.5
2019-03-27T06:28:13.246Z,5.5
2019-03-27T06:28:44.028Z,5.5
2019-03-27T06:29:17.087Z,5.6
2019-03-27T06:30:05.454Z,5.6
2019-03-27T06:31:04.345Z,5.6
2019-03-27T06:32:03.730Z,5.6
2019-03-27T06:33:02.511Z,5.6
2019-03-27T06:34:01.886Z,5.6
2019-03-27T06:35:00.918Z,5.6
2019-03-27T06:35:59.606Z,5.6
2019-03-27T06:36:30.192Z,5.6
2019-03-27T06:37:00.887Z,5.6
2019-03-27T06:37:31.502Z,5.6
2019-03-27T06:38:02.198Z,5.7
2019-03-27T06:38:56.852Z,5.6
2019-03-27T06:39:56.137Z,5.6
2019-03-27T06:40:54.995Z,5.7
2019-03-27T06:41:54.369Z,5.7
2019-03-27T06:42:53.156Z,5.7
2019-03-27T06:43:52.574Z,5.7
2019-03-27T06:44:51.349Z,5.7
2019-03-27T06:45:50.225Z,5.7
2019-03-27T06:46:49.501Z,5.7
2019-03-27T06:47:20.272Z,5.7
2019-03-27T06:47:50.882Z,5.8
2019-03-27T06:48:47.849Z,5.8
2019-03-27T06:49:46.624Z,5.8
2019-03-27T06:50:45.492Z,5.8
2019-03-27T06:52:43.754Z,5.8
2019-03-27T06:53:43.126Z,5.8
2019-03-27T06:54:42.002Z,5.8
2019-03-27T06:55:41.074Z,5.8
2019-03-27T06:56:39.942Z,5.8
2019-03-27T06:57:39.305Z,5.9
2019-03-27T06:58:38.183Z,5.8
2019-03-27T06:59:36.979Z,5.9
2019-03-27T07:00:36.377Z,5.9
2019-03-27T07:01:35.693Z,5.9
2019-03-27T07:02:05.876Z,5.9
2019-03-27T07:03:33.235Z,5.9
2019-03-27T07:04:32.718Z,5.9
2019-03-27T07:05:31.586Z,5.9
2019-03-27T07:06:30.472Z,5.9
2019-03-27T07:07:29.748Z,5.9
2019-03-27T07:08:28.612Z,5.9
2019-03-27T07:09:27.989Z,5.9
2019-03-27T07:10:26.666Z,5.9
2019-03-27T07:11:26.063Z,5.9
2019-03-27T07:11:56.258Z,5.9
2019-03-27T07:12:26.857Z,5.9
2019-03-27T07:12:57.478Z,5.9
2019-03-27T07:14:23.136Z,5.9
2019-03-27T07:15:22.407Z,5.9
2019-03-27T07:16:21.191Z,5.9
2019-03-27T07:17:20.485Z,5.9
2019-03-27T07:18:19.372Z,5.9
2019-03-27T07:19:18.829Z,5.9
2019-03-27T07:20:17.599Z,5.9
2019-03-27T07:21:16.376Z,5.9
2019-03-27T07:21:46.971Z,5.9
2019-03-27T07:22:17.681Z,5.9
2019-03-27T07:22:47.890Z,5.9
2019-03-27T07:23:18.083Z,5.9
2019-03-27T07:23:48.772Z,5.9
2019-03-27T07:25:12.822Z,6
2019-03-27T07:26:12.218Z,6
2019-03-27T07:27:11.010Z,6
2019-03-27T07:28:09.918Z,6
2019-03-27T07:29:09.302Z,6
2019-03-27T07:30:08.200Z,6.1
2019-03-27T07:31:06.994Z,6.1
2019-03-27T07:31:37.590Z,6.1
2019-03-27T07:32:08.192Z,6
2019-03-27T07:32:38.822Z,6
2019-03-27T07:33:09.520Z,6
2019-03-27T07:33:40.221Z,6
2019-03-27T07:34:10.420Z,6
2019-03-27T07:34:41.121Z,6
2019-03-27T07:36:02.656Z,6
2019-03-27T07:37:01.543Z,6
2019-03-27T07:38:00.815Z,6
2019-03-27T07:39:12.501Z,6
2019-03-27T07:39:58.695Z,6
2019-03-27T07:40:57.874Z,6
2019-03-27T07:41:57.260Z,6
2019-03-27T07:42:30.218Z,6
2019-03-27T07:42:58.217Z,6
2019-03-27T07:43:28.907Z,6
2019-03-27T07:43:59.680Z,6.1
2019-03-27T07:44:29.860Z,6.1
2019-03-27T07:45:00.720Z,6
2019-03-27T07:45:30.807Z,6
2019-03-27T07:46:52.230Z,6
2019-03-27T07:47:51.606Z,6
2019-03-27T07:48:55.596Z,6
2019-03-27T07:49:49.440Z,6.1
2019-03-27T07:50:48.820Z,6.1
2019-03-27T07:51:47.685Z,6.1
2019-03-27T07:52:18.380Z,6.1
2019-03-27T07:52:49.077Z,6.1
2019-03-27T07:53:23.309Z,6.1
2019-03-27T07:53:49.984Z,6.1
2019-03-27T07:54:20.526Z,6.1
2019-03-27T07:54:51.266Z,6
2019-03-27T07:55:21.273Z,6
2019-03-27T07:56:42.707Z,6
2019-03-27T07:57:42.083Z,6
2019-03-27T07:58:40.952Z,6.1
2019-03-27T07:59:40.338Z,6.1
2019-03-27T08:00:39.118Z,6.1
2019-03-27T08:01:38.397Z,6.2
2019-03-27T08:02:09.028Z,6.2
2019-03-27T08:02:39.220Z,6.2
2019-03-27T08:03:09.811Z,6.2
2019-03-27T08:03:40.399Z,6.2
2019-03-27T08:04:14.709Z,6.2
2019-03-27T08:04:41.494Z,6.2
2019-03-27T08:05:12.207Z,6.2
2019-03-27T08:05:42.385Z,6.2
2019-03-27T08:06:12.969Z,6.2
2019-03-27T08:07:32.979Z,6.2
2019-03-27T08:08:31.854Z,6.2
2019-03-27T08:09:30.731Z,6.2
2019-03-27T08:10:30.122Z,6.2
2019-03-27T08:11:29.546Z,6.2
2019-03-27T08:11:59.150Z,6.2
2019-03-27T08:12:29.866Z,6.2
2019-03-27T08:13:00.017Z,6.2
2019-03-27T08:13:30.708Z,6.2
2019-03-27T08:14:01.397Z,6.2
2019-03-27T08:14:31.999Z,6.2
2019-03-27T08:15:02.589Z,6.2
2019-03-27T08:15:33.292Z,6.3
2019-03-27T08:16:03.491Z,6.3
2019-03-27T08:17:23.493Z,6.3
2019-03-27T08:18:22.365Z,6.2
2019-03-27T08:19:21.646Z,6.2
2019-03-27T08:20:20.419Z,6.3
2019-03-27T08:21:19.705Z,6.3
2019-03-27T08:22:18.499Z,6.3
2019-03-27T08:22:49.210Z,6.3
2019-03-27T08:23:19.711Z,6.3
2019-03-27T08:23:50.305Z,6.3
2019-03-27T08:24:21.006Z,6.3
2019-03-27T08:24:51.697Z,6.3
2019-03-27T08:25:22.390Z,6.3
2019-03-27T08:25:53.098Z,6.3
2019-03-27T08:27:15.882Z,6.3
2019-03-27T08:28:13.157Z,6.3
2019-03-27T08:29:12.090Z,6.3
2019-03-27T08:30:11.366Z,6.3
2019-03-27T08:31:10.137Z,6.3
2019-03-27T08:32:09.420Z,6.3
2019-03-27T08:33:08.696Z,6.4
2019-03-27T08:33:39.283Z,6.4
2019-03-27T08:34:09.976Z,6.4
2019-03-27T08:34:40.468Z,6.4
2019-03-27T08:35:11.083Z,6.4
2019-03-27T08:35:41.176Z,6.4
2019-03-27T08:37:04.617Z,6.4
2019-03-27T08:38:03.898Z,6.4
2019-03-27T08:39:02.801Z,6.5
2019-03-27T08:40:02.092Z,6.5
2019-03-27T08:41:00.972Z,6.4
2019-03-27T08:42:00.350Z,6.5
2019-03-27T08:42:59.232Z,6.5
2019-03-27T08:43:58.137Z,6.5
2019-03-27T08:44:28.148Z,6.5
2019-03-27T08:44:58.656Z,6.5
2019-03-27T08:45:29.367Z,6.5
2019-03-27T08:46:55.414Z,6.5
2019-03-27T08:47:54.785Z,6.5
2019-03-27T08:49:52.951Z,6.5
2019-03-27T08:50:51.625Z,6.5
2019-03-27T08:51:50.906Z,6.5
2019-03-27T08:52:49.793Z,6.5
2019-03-27T08:53:49.258Z,6.5
2019-03-27T08:54:48.037Z,6.5
2019-03-27T08:55:18.759Z,6.5
2019-03-27T08:55:48.852Z,6.5
2019-03-27T08:56:19.249Z,6.5
2019-03-27T08:56:49.939Z,6.6
2019-03-27T08:57:45.287Z,6.6
2019-03-27T08:58:44.630Z,6.6
2019-03-27T08:59:43.415Z,6.6
2019-03-27T09:00:42.693Z,6.6
2019-03-27T09:01:41.565Z,6.6
2019-03-27T09:02:40.959Z,6.7
2019-03-27T09:03:39.742Z,6.7
2019-03-27T09:04:39.154Z,6.7
2019-03-27T09:05:09.361Z,6.7
2019-03-27T09:06:36.821Z,6.7
2019-03-27T09:07:36.108Z,6.8
2019-03-27T09:08:34.976Z,6.8
2019-03-27T09:09:34.293Z,6.8
2019-03-27T09:10:33.175Z,6.8
2019-03-27T09:11:32.584Z,6.9
2019-03-27T09:12:31.465Z,6.9
2019-03-27T09:13:30.792Z,7
2019-03-27T09:14:29.667Z,7
2019-03-27T09:15:28.448Z,7
2019-03-27T09:16:27.724Z,7
2019-03-27T09:17:27.007Z,7
2019-03-27T09:18:25.892Z,7
2019-03-27T09:19:37.323Z,7
2019-03-27T09:20:24.123Z,7
2019-03-27T09:20:54.897Z,7
2019-03-27T09:21:25.076Z,7.1
2019-03-27T09:21:55.808Z,7.1
2019-03-27T09:22:25.906Z,7.1
2019-03-27T09:23:21.260Z,7.1
2019-03-27T09:24:20.640Z,7.1
2019-03-27T09:25:19.413Z,7.1
2019-03-27T09:26:18.803Z,7.2
2019-03-27T09:27:17.594Z,7.1
2019-03-27T09:28:16.981Z,7.1
2019-03-27T09:29:15.849Z,7.1
2019-03-27T09:30:15.231Z,7.1
2019-03-27T09:30:45.718Z,7.1
2019-03-27T09:31:16.297Z,7.1
2019-03-27T09:31:47.001Z,7.1
2019-03-27T09:33:12.054Z,7.2
2019-03-27T09:34:11.322Z,7.2
2019-03-27T09:35:10.192Z,7.2
2019-03-27T09:36:10.743Z,7.2
2019-03-27T09:37:08.578Z,7.1
2019-03-27T09:38:07.459Z,7.2
2019-03-27T09:39:06.633Z,7.3
2019-03-27T09:40:05.860Z,7.2
2019-03-27T09:40:36.452Z,7.2
2019-03-27T09:41:07.053Z,7.2
2019-03-27T09:41:37.656Z,7.2
2019-03-27T09:42:08.353Z,7.2
2019-03-27T09:42:38.963Z,7.2
2019-03-27T09:44:01.901Z,7.1
2019-03-27T09:46:00.073Z,7.3
2019-03-27T09:46:59.449Z,7.3
2019-03-27T09:47:58.222Z,7.3
2019-03-27T09:48:57.512Z,7.2
2019-03-27T09:49:56.904Z,7.3
2019-03-27T09:50:27.599Z,7.3
2019-03-27T09:50:58.294Z,7.3
2019-03-27T09:51:29.057Z,7.3
2019-03-27T09:51:59.255Z,7.2
2019-03-27T09:52:29.954Z,7.2
2019-03-27T09:53:00.550Z,7.2
2019-03-27T09:53:31.150Z,7.2
2019-03-27T09:54:52.167Z,7.4
2019-03-27T09:55:51.041Z,7.5
2019-03-27T09:56:50.411Z,7.6
2019-03-27T09:57:49.235Z,7.6
2019-03-27T09:58:48.514Z,7.5
2019-03-27T09:59:47.391Z,7.5
2019-03-27T10:00:18.090Z,7.5
2019-03-27T10:00:49.709Z,7.6
2019-03-27T10:01:19.322Z,7.6
2019-03-27T10:01:50.020Z,7.5
2019-03-27T10:02:20.629Z,7.5
2019-03-27T10:02:51.328Z,7.6
2019-03-27T10:03:22.045Z,7.6
2019-03-27T10:04:43.112Z,7.6
2019-03-27T10:05:42.013Z,7.6
2019-03-27T10:06:41.277Z,7.5
2019-03-27T10:07:40.234Z,7.6
2019-03-27T10:08:39.601Z,7.7
2019-03-27T10:09:38.290Z,7.7
2019-03-27T10:10:08.979Z,7.7
2019-03-27T10:10:39.566Z,7.8
2019-03-27T10:11:10.164Z,7.8
2019-03-27T10:11:40.867Z,7.9
2019-03-27T10:12:11.544Z,7.9
2019-03-27T10:12:42.235Z,8
2019-03-27T10:13:12.927Z,8
2019-03-27T10:13:43.510Z,7.9
2019-03-27T10:14:14.194Z,7.9
2019-03-27T10:15:33.007Z,7.9
2019-03-27T10:16:32.389Z,8
2019-03-27T10:17:31.277Z,8
2019-03-27T10:18:30.658Z,8
2019-03-27T10:19:29.529Z,8.1
2019-03-27T10:20:28.310Z,8.1
2019-03-27T10:20:59.010Z,8.1
2019-03-27T10:21:29.203Z,8.1
2019-03-27T10:21:59.894Z,8.1
2019-03-27T10:22:30.487Z,8.1
2019-03-27T10:23:01.081Z,8.1
2019-03-27T10:23:31.578Z,8
2019-03-27T10:24:02.185Z,8
2019-03-27T10:24:32.677Z,8
2019-03-27T10:25:03.384Z,8
2019-03-27T10:26:23.414Z,7.9
2019-03-27T10:27:22.343Z,8
2019-03-27T10:28:21.230Z,8.1
2019-03-27T10:29:20.525Z,8.2
2019-03-27T10:30:19.908Z,8.1
2019-03-27T10:30:50.660Z,8.1
2019-03-27T10:31:20.861Z,8.2
2019-03-27T10:31:50.964Z,8.2
2019-03-27T10:32:21.352Z,8.2
2019-03-27T10:32:52.037Z,8.2
2019-03-27T10:33:22.722Z,8.1
2019-03-27T10:33:53.421Z,8.1
2019-03-27T10:34:24.107Z,8.1
2019-03-27T10:34:54.600Z,8.1
2019-03-27T10:36:14.517Z,8.2
2019-03-27T10:37:13.389Z,8.1
2019-03-27T10:38:12.287Z,8.2
2019-03-27T10:39:11.463Z,8.1
2019-03-27T10:40:10.839Z,8
2019-03-27T10:41:09.730Z,8
2019-03-27T10:41:39.918Z,8
2019-03-27T10:42:10.680Z,8.1
2019-03-27T10:42:41.276Z,8.1
2019-03-27T10:43:11.976Z,8.1
2019-03-27T10:43:42.570Z,8.1
2019-03-27T10:44:13.212Z,8
2019-03-27T10:44:43.401Z,8
2019-03-27T10:46:05.345Z,8.1
2019-03-27T10:47:04.037Z,8.1
2019-03-27T10:48:03.515Z,8
2019-03-27T10:49:02.911Z,8.1
2019-03-27T10:50:01.816Z,8.1
2019-03-27T10:51:00.749Z,8.1
2019-03-27T10:52:00.096Z,8.1
2019-03-27T10:52:30.288Z,8.1
2019-03-27T10:53:01.030Z,8.2
2019-03-27T10:53:31.633Z,8.2
2019-03-27T10:54:02.325Z,8.2
2019-03-27T10:54:32.919Z,8.2
2019-03-27T10:55:56.367Z,8.3
2019-03-27T10:56:55.674Z,8.3
2019-03-27T10:57:54.461Z,8.3
2019-03-27T10:58:53.841Z,8.2
2019-03-27T10:59:52.796Z,8.3
2019-03-27T11:00:52.181Z,8.4
2019-03-27T11:01:51.048Z,8.4
2019-03-27T11:02:50.423Z,8.5
2019-03-27T11:03:21.215Z,8.5
2019-03-27T11:03:51.395Z,8.5
2019-03-27T11:04:22.006Z,8.5
2019-03-27T11:05:47.482Z,8.5
2019-03-27T11:06:46.761Z,8.5
2019-03-27T11:07:45.853Z,8.5
2019-03-27T11:08:44.738Z,8.4
2019-03-27T11:09:44.043Z,8.5
2019-03-27T11:10:42.915Z,8.5
2019-03-27T11:11:42.324Z,8.5
2019-03-27T11:12:41.102Z,8.5
2019-03-27T11:13:40.390Z,8.5
2019-03-27T11:14:10.893Z,8.5
2019-03-27T11:15:38.447Z,8.5
2019-03-27T11:16:37.823Z,8.6
2019-03-27T11:17:36.700Z,8.6
2019-03-27T11:18:35.981Z,8.6
2019-03-27T11:19:35.059Z,8.7
2019-03-27T11:20:34.440Z,8.8
2019-03-27T11:21:33.218Z,8.7
2019-03-27T11:22:32.506Z,8.7
2019-03-27T11:23:31.377Z,8.7
2019-03-27T11:25:33.413Z,8.8
2019-03-27T11:26:28.587Z,8.9